createdAt,value
2023-03-14T00:01:46.471Z,5.83
2023-03-14T00:04:13.482Z,8.00
2023-03-14T00:06:40.365Z,7.73
2023-03-14T00:09:07.622Z,6.47
2023-03-14T00:11:34.684Z,4.87
2023-03-14T00:14:01.537Z,6.33
2023-03-14T00:16:28.721Z,8.07
2023-03-14T00:18:55.727Z,7.57
2023-03-14T00:21:22.629Z,10.23
2023-03-14T00:23:49.438Z,7.03
2023-03-14T00:26:18.251Z,9.13
2023-03-14T00:28:45.523Z,7.73
2023-03-14T00:31:14.862Z,6.17
2023-03-14T00:33:42.744Z,12.10
2023-03-14T00:36:12.266Z,9.83
2023-03-14T00:38:40.717Z,9.20
2023-03-14T00:41:13.312Z,18.17
2023-03-14T00:43:40.549Z,8.47
2023-03-14T00:46:08.036Z,9.37
2023-03-14T00:48:35.680Z,6.67
2023-03-14T00:51:04.341Z,8.30
2023-03-14T00:53:31.362Z,6.53
2023-03-14T00:55:58.245Z,7.20
2023-03-14T00:58:25.086Z,5.70
2023-03-14T01:00:51.939Z,10.53
2023-03-14T01:03:18.829Z,11.37
2023-03-14T01:05:45.745Z,13.20
2023-03-14T01:08:12.935Z,13.17
2023-03-14T01:10:41.614Z,11.10
2023-03-14T01:13:09.463Z,12.90
2023-03-14T01:15:37.673Z,13.73
2023-03-14T01:18:05.422Z,11.17
2023-03-14T01:20:32.279Z,8.43
2023-03-14T01:22:59.367Z,9.03
2023-03-14T01:25:26.318Z,7.90
2023-03-14T01:27:53.168Z,8.97
2023-03-14T01:30:20.150Z,10.60
2023-03-14T01:32:47.185Z,13.13
2023-03-14T01:35:14.093Z,7.23
2023-03-14T01:37:41.006Z,7.27
2023-03-14T01:40:08.492Z,9.43
2023-03-14T01:42:35.348Z,17.83
2023-03-14T01:45:03.060Z,17.77
2023-03-14T01:47:30.346Z,19.40
2023-03-14T01:50:09.206Z,92.93
2023-03-14T01:52:46.866Z,39.63
2023-03-14T01:55:20.392Z,20.97
2023-03-14T01:57:56.074Z,20.13
2023-03-14T02:00:24.479Z,47.67
2023-03-14T02:02:56.638Z,30.60
2023-03-14T02:05:27.709Z,16.47
2023-03-14T02:07:56.778Z,11.47
2023-03-14T02:10:26.066Z,9.63
2023-03-14T02:12:56.580Z,11.87
2023-03-14T02:15:23.825Z,11.87
2023-03-14T02:17:50.894Z,10.57
2023-03-14T02:20:23.729Z,12.87
2023-03-14T02:22:51.013Z,9.10
2023-03-14T02:25:29.632Z,8.97
2023-03-14T02:27:56.588Z,7.90
2023-03-14T02:30:33.939Z,6.77
2023-03-14T02:33:06.921Z,8.67
2023-03-14T02:35:47.634Z,7.73
2023-03-14T02:38:34.768Z,11.17
2023-03-14T02:41:01.632Z,10.23
2023-03-14T02:43:28.524Z,9.87
2023-03-14T02:45:55.675Z,9.57
2023-03-14T02:48:27.296Z,11.30
2023-03-14T02:50:57.934Z,9.00
2023-03-14T02:53:31.402Z,6.53
2023-03-14T02:55:58.637Z,9.03
2023-03-14T02:58:27.072Z,7.37
2023-03-14T03:00:54.583Z,9.30
2023-03-14T03:03:21.910Z,6.63
2023-03-14T03:05:53.458Z,8.37
2023-03-14T03:08:21.740Z,8.17
2023-03-14T03:10:49.208Z,6.83
2023-03-14T03:13:16.600Z,7.17
2023-03-14T03:15:44.192Z,7.50
2023-03-14T03:18:11.506Z,5.87
2023-03-14T03:20:39.183Z,9.17
2023-03-14T03:23:06.233Z,3.70
2023-03-14T03:25:33.407Z,7.93
2023-03-14T03:28:00.356Z,6.00
2023-03-14T03:30:27.215Z,5.67
2023-03-14T03:32:54.151Z,6.10
2023-03-14T03:35:21.090Z,4.13
2023-03-14T03:37:47.888Z,5.50
2023-03-14T03:40:14.761Z,8.77
2023-03-14T03:42:41.616Z,6.93
2023-03-14T03:45:08.990Z,6.90
2023-03-14T03:47:35.878Z,5.83
2023-03-14T03:50:03.505Z,5.93
2023-03-14T03:52:30.301Z,5.70
2023-03-14T03:54:57.213Z,7.00
2023-03-14T03:57:24.035Z,5.10
2023-03-14T03:59:50.884Z,6.87
2023-03-14T04:02:17.715Z,7.60
2023-03-14T04:04:44.664Z,7.43
2023-03-14T04:07:14.494Z,6.10
2023-03-14T04:09:41.377Z,5.30
2023-03-14T04:12:08.305Z,5.13
2023-03-14T04:14:35.167Z,5.23
2023-03-14T04:17:02.026Z,4.87
2023-03-14T04:19:28.806Z,5.70
2023-03-14T04:21:55.608Z,5.03
2023-03-14T04:24:22.516Z,5.47
2023-03-14T04:26:49.310Z,5.67
2023-03-14T04:29:16.185Z,4.13
2023-03-14T04:31:43.168Z,10.43
2023-03-14T04:34:10.361Z,6.03
2023-03-14T04:36:39.614Z,4.50
2023-03-14T04:39:06.938Z,5.47
2023-03-14T04:41:33.895Z,5.40
2023-03-14T04:44:00.735Z,5.43
2023-03-14T04:46:27.634Z,6.23
2023-03-14T04:48:54.543Z,9.03
2023-03-14T04:51:24.449Z,8.40
2023-03-14T04:53:51.229Z,8.57
2023-03-14T04:56:18.134Z,6.73
2023-03-14T04:58:45.561Z,10.50
2023-03-14T05:01:12.410Z,24.53
2023-03-14T05:03:39.275Z,23.40
2023-03-14T05:06:06.580Z,32.57
2023-03-14T05:08:33.425Z,49.43
2023-03-14T05:11:00.386Z,49.93
2023-03-14T05:13:27.471Z,37.47
2023-03-14T05:15:56.421Z,20.80
2023-03-14T05:18:23.245Z,9.57
2023-03-14T05:20:52.878Z,10.00
2023-03-14T05:23:19.694Z,8.87
2023-03-14T05:25:46.629Z,12.13
2023-03-14T05:28:13.551Z,6.13
2023-03-14T05:30:40.568Z,8.13
2023-03-14T05:33:07.425Z,8.23
2023-03-14T05:35:34.243Z,10.40
2023-03-14T05:38:01.306Z,5.17
2023-03-14T05:40:28.186Z,4.43
2023-03-14T05:42:55.080Z,7.77
2023-03-14T05:45:21.967Z,7.17
2023-03-14T05:47:48.945Z,6.97
2023-03-14T05:50:15.880Z,6.13
2023-03-14T05:52:42.710Z,6.40
2023-03-14T05:55:10.014Z,12.13
2023-03-14T05:57:36.908Z,6.87
2023-03-14T06:00:04.528Z,9.83
2023-03-14T06:02:31.784Z,12.57
2023-03-14T06:04:58.904Z,10.87
2023-03-14T06:07:25.784Z,8.17
2023-03-14T06:09:52.684Z,9.33
2023-03-14T06:12:19.707Z,7.47
2023-03-14T06:14:46.634Z,14.67
2023-03-14T06:17:13.490Z,18.60
2023-03-14T06:19:40.292Z,11.20
2023-03-14T06:22:07.165Z,14.53
2023-03-14T06:24:34.168Z,14.80
2023-03-14T06:27:01.045Z,15.77
2023-03-14T06:29:27.964Z,12.60
2023-03-14T06:31:54.927Z,7.07
2023-03-14T06:34:21.990Z,9.33
2023-03-14T06:36:48.887Z,6.57
2023-03-14T06:39:15.803Z,5.13
2023-03-14T06:41:42.607Z,11.20
2023-03-14T06:44:10.133Z,9.37
2023-03-14T06:46:37.031Z,11.97
2023-03-14T06:49:04.030Z,11.27
2023-03-14T06:51:31.508Z,9.20
2023-03-14T06:53:58.326Z,9.33
2023-03-14T06:56:25.222Z,10.33
2023-03-14T06:58:52.071Z,10.33
2023-03-14T07:01:26.627Z,8.07
2023-03-14T07:03:53.622Z,8.77
2023-03-14T07:06:20.776Z,11.13
2023-03-14T07:08:47.628Z,10.77
2023-03-14T07:11:14.709Z,5.97
2023-03-14T07:13:41.502Z,7.47
2023-03-14T07:16:09.270Z,7.53
2023-03-14T07:18:36.333Z,7.47
2023-03-14T07:21:03.235Z,8.07
2023-03-14T07:23:30.856Z,8.33
2023-03-14T07:25:57.739Z,7.77
2023-03-14T07:28:24.535Z,5.77
2023-03-14T07:30:51.337Z,10.33
2023-03-14T07:33:18.314Z,9.70
2023-03-14T07:35:45.142Z,11.27
2023-03-14T07:38:12.001Z,12.33
2023-03-14T07:40:39.014Z,7.97
2023-03-14T07:43:05.941Z,8.47
2023-03-14T07:45:32.763Z,10.50
2023-03-14T07:47:59.608Z,10.20
2023-03-14T07:50:27.508Z,9.13
2023-03-14T07:52:56.236Z,8.23
2023-03-14T07:55:23.301Z,12.37
2023-03-14T07:57:50.099Z,9.10
2023-03-14T08:00:17.240Z,8.63
2023-03-14T08:02:44.165Z,7.90
2023-03-14T08:05:11.712Z,7.63
2023-03-14T08:07:38.587Z,12.07
2023-03-14T08:10:06.215Z,12.40
2023-03-14T08:12:33.161Z,11.73
2023-03-14T08:15:00.713Z,13.20
2023-03-14T08:17:29.018Z,11.97
2023-03-14T08:19:55.938Z,11.67
2023-03-14T08:22:22.967Z,12.40
2023-03-14T08:24:49.822Z,12.37
2023-03-14T08:27:16.737Z,9.77
2023-03-14T08:29:43.781Z,10.07
2023-03-14T08:32:10.911Z,9.80
2023-03-14T08:34:38.617Z,7.63
2023-03-14T08:37:16.295Z,13.83
2023-03-14T08:39:50.501Z,11.07
2023-03-14T08:42:17.504Z,17.60
2023-03-14T08:44:44.535Z,9.67
2023-03-14T08:47:11.510Z,9.97
2023-03-14T08:49:38.575Z,7.80
2023-03-14T08:52:06.420Z,8.90
2023-03-14T08:54:33.366Z,8.20
2023-03-14T08:57:00.272Z,8.33
2023-03-14T08:59:27.151Z,7.17
2023-03-14T09:01:55.584Z,7.57
2023-03-14T09:04:22.910Z,9.23
2023-03-14T09:06:49.893Z,10.47
2023-03-14T09:09:16.974Z,8.50
2023-03-14T09:11:43.870Z,7.57
2023-03-14T09:14:10.723Z,7.17
2023-03-14T09:16:37.709Z,9.60
2023-03-14T09:19:04.868Z,6.10
2023-03-14T09:21:31.822Z,9.23
2023-03-14T09:23:58.708Z,8.20
2023-03-14T09:26:25.603Z,7.40
2023-03-14T09:28:52.458Z,8.17
2023-03-14T09:31:19.358Z,8.67
2023-03-14T09:33:46.271Z,8.10
2023-03-14T09:36:14.163Z,9.87
2023-03-14T09:38:41.077Z,8.50
2023-03-14T09:41:34.045Z,8.40
2023-03-14T09:44:24.331Z,7.07
2023-03-14T09:46:54.751Z,8.97
2023-03-14T09:49:35.487Z,8.33
2023-03-14T09:52:19.033Z,9.63
2023-03-14T09:54:51.117Z,12.67
2023-03-14T09:57:21.483Z,9.23
2023-03-14T09:59:50.508Z,9.40
2023-03-14T10:02:32.959Z,9.83
2023-03-14T10:05:06.846Z,9.93
2023-03-14T10:07:34.504Z,9.30
2023-03-14T10:10:01.720Z,8.77
2023-03-14T10:12:34.075Z,8.37
2023-03-14T10:15:05.748Z,9.27
2023-03-14T10:17:40.867Z,10.27
2023-03-14T10:20:11.830Z,9.00
2023-03-14T10:22:39.034Z,12.50
2023-03-14T10:25:08.847Z,15.30
2023-03-14T10:27:37.092Z,16.30
2023-03-14T10:30:27.564Z,18.73
2023-03-14T10:32:54.457Z,13.43
2023-03-14T10:35:23.465Z,13.00
2023-03-14T10:37:57.763Z,11.70
2023-03-14T10:40:39.063Z,9.23
2023-03-14T10:43:14.232Z,8.53
2023-03-14T10:45:46.858Z,10.87
2023-03-14T10:48:19.831Z,8.43
2023-03-14T10:50:50.767Z,8.93
2023-03-14T10:53:18.826Z,9.63
2023-03-14T10:55:46.744Z,9.00
2023-03-14T10:58:28.347Z,18.30
2023-03-14T11:01:18.074Z,13.00
2023-03-14T11:03:57.549Z,14.73
2023-03-14T11:06:53.548Z,9.03
2023-03-14T11:09:25.167Z,13.77
2023-03-14T11:11:52.070Z,16.03
2023-03-14T11:14:33.586Z,17.43
2023-03-14T11:17:30.111Z,16.57
2023-03-14T11:20:05.778Z,15.10
2023-03-14T11:22:44.737Z,22.13
2023-03-14T11:25:33.656Z,10.30
2023-03-14T11:28:16.788Z,12.77
2023-03-14T11:30:58.823Z,14.60
2023-03-14T11:33:50.612Z,12.07
2023-03-14T11:36:22.516Z,11.20
2023-03-14T11:38:56.152Z,11.80
2023-03-14T11:41:46.652Z,9.47
2023-03-14T11:44:23.423Z,7.63
2023-03-14T11:47:14.304Z,11.70
2023-03-14T11:50:01.736Z,10.47
2023-03-14T11:52:39.163Z,8.17
2023-03-14T11:55:05.974Z,6.17
2023-03-14T11:57:32.887Z,8.13
2023-03-14T12:00:23.305Z,7.73
2023-03-14T12:02:56.134Z,7.77
2023-03-14T12:05:40.712Z,9.37
2023-03-14T12:08:10.713Z,17.90
2023-03-14T12:10:41.692Z,10.03
2023-03-14T12:13:11.923Z,10.80
2023-03-14T12:16:00.077Z,11.50
2023-03-14T12:18:40.826Z,9.50
2023-03-14T12:21:10.921Z,13.47
2023-03-14T12:23:50.702Z,15.20
2023-03-14T12:26:21.436Z,11.33
2023-03-14T12:28:57.845Z,10.57
2023-03-14T12:31:31.044Z,14.10
2023-03-14T12:34:18.136Z,24.70
2023-03-14T12:36:50.056Z,9.17
2023-03-14T12:39:41.918Z,14.33
2023-03-14T12:42:16.877Z,13.47
2023-03-14T12:44:47.235Z,10.47
2023-03-14T12:47:20.246Z,9.73
2023-03-14T12:49:50.021Z,9.23
2023-03-14T12:52:23.898Z,8.67
2023-03-14T12:55:38.534Z,9.37
2023-03-14T12:58:05.319Z,11.27
2023-03-14T13:00:35.092Z,12.23
2023-03-14T13:03:17.199Z,13.47
2023-03-14T13:06:02.975Z,11.93
2023-03-14T13:08:45.029Z,15.83
2023-03-14T13:11:21.620Z,20.03
2023-03-14T13:13:58.523Z,10.83
2023-03-14T13:16:25.561Z,15.47
2023-03-14T13:19:03.755Z,9.43
2023-03-14T13:21:36.682Z,9.23
2023-03-14T13:24:19.869Z,10.57
2023-03-14T13:26:50.016Z,9.07
2023-03-14T13:29:34.675Z,9.53
2023-03-14T13:32:13.984Z,8.93
2023-03-14T13:34:42.120Z,9.70
2023-03-14T13:37:22.005Z,9.40
2023-03-14T13:39:53.680Z,8.80
2023-03-14T13:42:20.781Z,12.20
2023-03-14T13:44:48.166Z,11.00
2023-03-14T13:47:19.301Z,13.20
2023-03-14T13:49:47.011Z,8.93
2023-03-14T13:52:24.184Z,7.70
2023-03-14T13:54:55.218Z,16.93
2023-03-14T13:57:22.534Z,16.17
2023-03-14T14:00:11.151Z,22.10
2023-03-14T14:02:40.343Z,12.33
2023-03-14T14:05:07.764Z,7.40
2023-03-14T14:07:34.704Z,24.20
2023-03-14T14:10:02.624Z,7.90
2023-03-14T14:12:43.639Z,8.13
2023-03-14T14:15:22.080Z,6.00
2023-03-14T14:18:04.428Z,7.53
2023-03-14T14:20:39.049Z,9.27
2023-03-14T14:23:10.967Z,9.90
2023-03-14T14:25:38.506Z,12.70
2023-03-14T14:28:34.914Z,8.30
2023-03-14T14:31:22.274Z,7.90
2023-03-14T14:34:02.308Z,9.47
2023-03-14T14:36:45.746Z,20.43
2023-03-14T14:39:24.260Z,21.97
2023-03-14T14:41:53.046Z,23.13
2023-03-14T14:44:29.147Z,16.13
2023-03-14T14:46:57.236Z,10.47
2023-03-14T14:49:30.968Z,15.67
2023-03-14T14:52:05.539Z,10.43
2023-03-14T14:54:41.084Z,15.10
2023-03-14T14:57:23.558Z,14.47
2023-03-14T14:59:54.492Z,13.10
2023-03-14T15:02:45.372Z,10.23
2023-03-14T15:05:19.419Z,15.10
2023-03-14T15:07:49.375Z,16.63
2023-03-14T15:10:18.656Z,12.00
2023-03-14T15:12:45.859Z,13.67
2023-03-14T15:15:13.846Z,14.67
2023-03-14T15:17:40.811Z,17.93
2023-03-14T15:20:14.428Z,25.47
2023-03-14T15:22:41.904Z,26.90
2023-03-14T15:25:18.641Z,14.87
2023-03-14T15:27:54.235Z,12.30
2023-03-14T15:30:21.298Z,15.90
2023-03-14T15:32:48.552Z,13.37
2023-03-14T15:35:17.816Z,14.43
2023-03-14T15:37:45.808Z,14.27
2023-03-14T15:40:15.399Z,11.47
2023-03-14T15:42:42.792Z,12.80
2023-03-14T15:45:10.574Z,11.93
2023-03-14T15:47:37.666Z,12.17
2023-03-14T15:50:05.485Z,14.20
2023-03-14T15:52:32.317Z,10.83
2023-03-14T15:54:59.411Z,12.03
2023-03-14T15:57:26.388Z,9.53
2023-03-14T15:59:53.690Z,11.50
2023-03-14T16:02:20.745Z,11.33
2023-03-14T16:04:47.858Z,14.47
2023-03-14T16:07:14.746Z,15.33
2023-03-14T16:09:41.559Z,11.77
2023-03-14T16:12:09.917Z,15.93
2023-03-14T16:14:36.829Z,7.10
2023-03-14T16:17:03.939Z,6.80
2023-03-14T16:19:32.027Z,7.53
2023-03-14T16:21:59.092Z,7.07
2023-03-14T16:24:25.975Z,6.03
2023-03-14T16:26:53.060Z,7.13
2023-03-14T16:29:19.946Z,8.20
2023-03-14T16:31:47.369Z,5.97
2023-03-14T16:34:14.502Z,15.77
2023-03-14T16:36:41.455Z,9.60
2023-03-14T16:39:08.522Z,10.23
2023-03-14T16:41:35.458Z,10.90
2023-03-14T16:44:02.854Z,8.77
2023-03-14T16:46:30.768Z,8.53
2023-03-14T16:48:58.673Z,7.57
2023-03-14T16:51:25.899Z,14.97
2023-03-14T16:53:53.043Z,16.03
2023-03-14T16:56:20.493Z,15.10
2023-03-14T16:58:48.539Z,12.47
2023-03-14T17:01:18.580Z,8.23
2023-03-14T17:03:48.596Z,10.33
2023-03-14T17:06:18.390Z,9.43
2023-03-14T17:08:45.677Z,10.47
2023-03-14T17:11:12.707Z,8.97
2023-03-14T17:13:39.612Z,10.70
2023-03-14T17:16:07.567Z,7.10
2023-03-14T17:18:34.668Z,9.07
2023-03-14T17:21:02.354Z,12.33
2023-03-14T17:23:31.583Z,9.07
2023-03-14T17:25:58.905Z,14.33
2023-03-14T17:28:27.190Z,14.17
2023-03-14T17:31:03.460Z,17.90
2023-03-14T17:33:30.926Z,14.50
2023-03-14T17:35:58.018Z,39.60
2023-03-14T17:38:25.190Z,65.30
2023-03-14T17:40:52.420Z,145.37
2023-03-14T17:43:19.645Z,69.87
2023-03-14T17:45:46.968Z,38.23
2023-03-14T17:48:14.169Z,17.03
2023-03-14T17:50:41.733Z,9.13
2023-03-14T17:53:08.774Z,11.10
2023-03-14T17:55:36.217Z,12.00
2023-03-14T17:58:03.313Z,12.13
2023-03-14T18:00:30.176Z,17.53
2023-03-14T18:02:59.133Z,18.70
2023-03-14T18:05:27.380Z,20.47
2023-03-14T18:07:54.438Z,14.07
2023-03-14T18:10:21.854Z,10.10
2023-03-14T18:12:48.925Z,7.43
2023-03-14T18:15:16.361Z,9.90
2023-03-14T18:17:44.240Z,9.23
2023-03-14T18:20:15.542Z,11.63
2023-03-14T18:22:42.857Z,12.80
2023-03-14T18:25:11.807Z,11.63
2023-03-14T18:27:39.208Z,13.47
2023-03-14T18:30:07.139Z,14.03
2023-03-14T18:32:34.679Z,16.73
2023-03-14T18:35:02.396Z,20.60
2023-03-14T18:37:30.052Z,16.57
2023-03-14T18:39:57.561Z,13.80
2023-03-14T18:42:24.774Z,14.40
2023-03-14T18:44:51.926Z,10.57
2023-03-14T18:47:19.058Z,10.90
2023-03-14T18:49:45.976Z,8.57
2023-03-14T18:52:13.042Z,8.57
2023-03-14T18:54:40.221Z,9.43
2023-03-14T18:57:07.291Z,9.93
2023-03-14T18:59:34.272Z,8.80
2023-03-14T19:02:01.389Z,10.73
2023-03-14T19:04:28.474Z,8.33
2023-03-14T19:06:55.365Z,7.90
2023-03-14T19:09:22.535Z,7.20
2023-03-14T19:11:49.541Z,10.13
2023-03-14T19:14:20.314Z,11.37
2023-03-14T19:16:48.039Z,11.27
2023-03-14T19:19:15.792Z,9.97
2023-03-14T19:21:43.173Z,11.27
2023-03-14T19:24:14.350Z,11.30
2023-03-14T19:26:41.798Z,13.07
2023-03-14T19:29:09.924Z,15.00
2023-03-14T19:31:37.188Z,16.47
2023-03-14T19:34:04.823Z,13.13
2023-03-14T19:36:35.153Z,14.93
2023-03-14T19:39:03.246Z,26.50
2023-03-14T19:41:31.229Z,33.40
2023-03-14T19:43:58.440Z,28.40
2023-03-14T19:46:25.718Z,37.43
2023-03-14T19:48:56.346Z,24.27
2023-03-14T19:51:23.730Z,18.57
2023-03-14T19:53:51.288Z,16.47
2023-03-14T19:56:20.904Z,10.77
2023-03-14T19:58:48.397Z,18.47
2023-03-14T20:01:15.670Z,18.00
2023-03-14T20:03:43.217Z,15.97
2023-03-14T20:06:13.118Z,13.40
2023-03-14T20:08:41.522Z,13.10
2023-03-14T20:11:09.166Z,12.13
2023-03-14T20:13:36.704Z,6.63
2023-03-14T20:16:05.464Z,5.07
2023-03-14T20:18:33.346Z,4.23
2023-03-14T20:21:00.551Z,3.90
2023-03-14T20:23:28.396Z,1.47
2023-03-14T20:25:57.491Z,1.63
2023-03-14T20:28:29.191Z,1.23
2023-03-14T20:30:56.970Z,1.97
2023-03-14T20:33:26.390Z,0.50
2023-03-14T20:35:58.003Z,1.80
2023-03-14T20:38:27.067Z,0.93
2023-03-14T20:41:01.260Z,0.70
2023-03-14T20:43:30.473Z,0.47
2023-03-14T20:46:00.861Z,1.30
2023-03-14T20:48:29.180Z,2.47
2023-03-14T20:50:56.925Z,0.90
2023-03-14T20:53:25.303Z,1.13
2023-03-14T20:55:56.418Z,0.70
2023-03-14T20:58:25.174Z,0.53
2023-03-14T21:00:54.971Z,0.93
2023-03-14T21:03:24.030Z,0.23
2023-03-14T21:05:52.771Z,1.03
2023-03-14T21:08:23.015Z,0.47
2023-03-14T21:10:52.426Z,2.40
2023-03-14T21:13:19.678Z,1.00
2023-03-14T21:15:46.966Z,0.60
2023-03-14T21:18:14.641Z,0.60
2023-03-14T21:20:42.861Z,1.03
2023-03-14T21:23:15.983Z,1.30
2023-03-14T21:25:44.852Z,1.73
2023-03-14T21:28:13.269Z,1.83
2023-03-14T21:30:40.676Z,2.17
2023-03-14T21:33:07.795Z,1.53
2023-03-14T21:35:34.951Z,2.17
2023-03-14T21:38:02.269Z,3.43
2023-03-14T21:40:29.498Z,4.03
2023-03-14T21:42:56.404Z,1.70
2023-03-14T21:45:27.775Z,4.43
2023-03-14T21:47:55.760Z,2.27
2023-03-14T21:50:24.595Z,6.90
2023-03-14T21:52:52.508Z,1.07
2023-03-14T21:55:19.916Z,1.57
2023-03-14T21:57:48.978Z,1.70
2023-03-14T22:00:18.211Z,1.97
2023-03-14T22:03:03.293Z,2.27
2023-03-14T22:05:34.117Z,3.33
2023-03-14T22:08:01.208Z,2.73
2023-03-14T22:10:28.513Z,3.77
2023-03-14T22:13:51.748Z,3.33
2023-03-14T22:16:18.805Z,4.23
2023-03-14T22:18:45.896Z,3.20
2023-03-14T22:21:12.974Z,3.33
2023-03-14T22:23:40.533Z,3.83
2023-03-14T22:26:07.884Z,5.07
2023-03-14T22:28:35.282Z,6.87
2023-03-14T22:31:03.655Z,6.20
2023-03-14T22:33:31.558Z,5.80
2023-03-14T22:35:58.951Z,4.27
2023-03-14T22:38:26.039Z,5.43
2023-03-14T22:40:53.146Z,4.90
2023-03-14T22:43:20.466Z,5.60
2023-03-14T22:45:47.675Z,4.77
2023-03-14T22:48:15.561Z,6.93
2023-03-14T22:50:42.468Z,5.47
2023-03-14T22:53:09.663Z,5.83
2023-03-14T22:55:36.804Z,6.03
2023-03-14T22:58:04.358Z,5.97
2023-03-14T23:00:32.041Z,5.23
2023-03-14T23:02:59.631Z,4.20
2023-03-14T23:05:26.986Z,4.57
2023-03-14T23:07:54.560Z,4.27
2023-03-14T23:10:21.689Z,4.67
2023-03-14T23:12:48.812Z,5.50
2023-03-14T23:15:16.355Z,5.57
2023-03-14T23:17:44.744Z,5.87
2023-03-14T23:20:13.381Z,4.57
2023-03-14T23:22:40.802Z,8.37
2023-03-14T23:25:08.680Z,12.23
2023-03-14T23:27:35.833Z,10.23
2023-03-14T23:30:04.388Z,8.17
2023-03-14T23:32:31.599Z,9.97
2023-03-14T23:34:58.718Z,11.30
2023-03-14T23:37:26.039Z,10.93
2023-03-14T23:39:53.138Z,10.17
2023-03-14T23:42:20.185Z,8.73
2023-03-14T23:44:47.093Z,7.23
2023-03-14T23:47:14.070Z,9.37
2023-03-14T23:49:41.809Z,6.60
2023-03-14T23:52:09.232Z,7.87
2023-03-14T23:54:36.826Z,6.80
2023-03-14T23:57:05.605Z,15.00
2023-03-14T23:59:33.978Z,9.23
